createdAt,value
2023-05-24T00:04:14.037Z,19.7
2023-05-24T00:10:05.920Z,19.7
2023-05-24T00:15:42.106Z,19.7
2023-05-24T00:21:35.906Z,19.7
2023-05-24T00:27:27.865Z,19.7
2023-05-24T00:33:04.800Z,19.7
2023-05-24T00:38:56.450Z,19.7
2023-05-24T00:44:48.439Z,19.6
2023-05-24T00:50:41.136Z,19.6
2023-05-24T00:56:17.935Z,19.6
2023-05-24T01:02:10.618Z,19.6
2023-05-24T01:08:03.265Z,19.6
2023-05-24T01:13:57.739Z,19.6
2023-05-24T01:19:49.167Z,19.6
2023-05-24T01:25:40.633Z,19.6
2023-05-24T01:31:32.596Z,19.6
2023-05-24T01:37:09.179Z,19.6
2023-05-24T01:42:45.350Z,19.6
2023-05-24T01:48:37.241Z,19.6
2023-05-24T01:54:28.856Z,19.6
2023-05-24T02:00:20.197Z,19.6
2023-05-24T02:05:57.322Z,19.6
2023-05-24T02:11:48.526Z,19.6
2023-05-24T02:17:39.781Z,19.6
2023-05-24T02:23:16.517Z,19.6
2023-05-24T02:29:07.919Z,19.6
2023-05-24T02:34:59.584Z,19.6
2023-05-24T02:40:50.551Z,19.6
2023-05-24T02:46:42.456Z,19.6
2023-05-24T02:52:18.929Z,19.6
2023-05-24T02:58:11.006Z,19.6
2023-05-24T03:04:03.608Z,19.6
2023-05-24T03:09:55.318Z,19.6
2023-05-24T03:15:48.411Z,19.6
2023-05-24T03:21:40.588Z,19.5
2023-05-24T03:27:32.290Z,19.6
2023-05-24T03:33:23.713Z,19.6
2023-05-24T03:39:15.065Z,19.6
2023-05-24T03:45:06.768Z,19.6
2023-05-24T03:51:13.118Z,19.6
2023-05-24T03:57:05.241Z,19.6
2023-05-24T04:03:11.538Z,19.5
2023-05-24T04:08:32.654Z,19.5
2023-05-24T04:14:24.217Z,19.5
2023-05-24T04:20:17.387Z,19.5
2023-05-24T04:26:09.645Z,19.6
2023-05-24T04:32:01.863Z,19.5
2023-05-24T04:37:53.754Z,19.5
2023-05-24T04:43:45.409Z,19.5
2023-05-24T04:49:37.656Z,19.5
2023-05-24T04:55:29.494Z,19.5
2023-05-24T05:01:07.913Z,19.5
2023-05-24T05:07:00.309Z,19.5
2023-05-24T05:12:52.768Z,19.6
2023-05-24T05:18:44.929Z,19.5
2023-05-24T05:24:22.198Z,19.6
2023-05-24T05:29:58.367Z,19.6
2023-05-24T05:35:35.229Z,19.6
2023-05-24T05:41:29.711Z,19.6
2023-05-24T05:47:06.099Z,19.6
2023-05-24T05:52:58.065Z,19.6
2023-05-24T05:58:49.535Z,19.6
2023-05-24T06:04:41.745Z,19.6
2023-05-24T06:10:34.703Z,19.6
2023-05-24T06:16:28.241Z,19.6
2023-05-24T06:22:30.716Z,19.6
2023-05-24T06:28:21.680Z,19.6
2023-05-24T06:34:21.513Z,19.6
2023-05-24T06:40:13.051Z,19.6
2023-05-24T06:46:03.586Z,19.6
2023-05-24T06:51:56.678Z,19.6
2023-05-24T06:57:51.107Z,19.6
2023-05-24T07:03:43.437Z,19.6
2023-05-24T07:09:35.201Z,19.6
2023-05-24T07:15:11.710Z,19.6
2023-05-24T07:21:04.083Z,19.6
2023-05-24T07:26:58.422Z,19.6
2023-05-24T07:32:32.549Z,19.6
2023-05-24T07:38:12.411Z,19.6
2023-05-24T07:44:04.336Z,19.6
2023-05-24T07:49:41.123Z,19.6
2023-05-24T07:55:33.139Z,19.7
2023-05-24T08:01:25.323Z,19.7
2023-05-24T08:07:02.264Z,19.6
2023-05-24T08:12:53.715Z,19.7
2023-05-24T08:18:30.870Z,19.7
2023-05-24T08:24:25.927Z,19.7
2023-05-24T08:30:18.112Z,19.7
2023-05-24T08:36:10.586Z,19.7
2023-05-24T08:42:13.809Z,19.7
2023-05-24T08:47:51.316Z,19.7
2023-05-24T08:53:45.720Z,19.7
2023-05-24T08:59:37.853Z,19.7
2023-05-24T09:05:00.713Z,19.7
2023-05-24T09:10:22.885Z,19.7
2023-05-24T09:16:40.061Z,19.7
2023-05-24T09:22:38.201Z,19.8
2023-05-24T09:28:16.184Z,19.8
2023-05-24T09:33:53.653Z,19.8
2023-05-24T09:39:45.037Z,19.8
2023-05-24T09:45:07.201Z,19.8
2023-05-24T09:50:59.830Z,19.8
2023-05-24T09:56:37.551Z,19.8
2023-05-24T10:02:38.461Z,19.8
2023-05-24T10:08:37.438Z,19.8
2023-05-24T10:14:29.790Z,19.8
2023-05-24T10:43:42.428Z,19.8
2023-05-24T10:49:33.925Z,19.9
2023-05-24T10:55:04.194Z,20
2023-05-24T11:00:12.162Z,19.9
2023-05-24T11:05:54.316Z,19.9
2023-05-24T11:10:44.704Z,20.1
2023-05-24T11:16:21.832Z,20.3
2023-05-24T11:21:30.225Z,20.1
2023-05-24T11:27:06.202Z,20.1
2023-05-24T11:32:48.700Z,20.1
2023-05-24T11:38:35.336Z,20.2
2023-05-24T11:44:12.161Z,20.2
2023-05-24T11:49:49.772Z,20.4
2023-05-24T11:55:36.659Z,20.6
2023-05-24T12:01:13.406Z,20.6
2023-05-24T12:06:55.329Z,20.3
2023-05-24T12:12:45.169Z,20.2
2023-05-24T12:18:09.416Z,20.2
2023-05-24T12:24:19.473Z,20.3
2023-05-24T12:29:57.061Z,20.3
2023-05-24T12:35:34.458Z,20.3
2023-05-24T12:41:28.690Z,20.3
2023-05-24T12:47:21.802Z,20.3
2023-05-24T12:52:57.570Z,20.4
2023-05-24T12:58:35.679Z,20.9
2023-05-24T13:04:12.532Z,20.9
2023-05-24T13:09:34.139Z,20.7
2023-05-24T13:14:55.740Z,20.5
2023-05-24T13:20:33.395Z,20.6
2023-05-24T13:26:24.613Z,20.6
2023-05-24T13:32:29.980Z,20.4
2023-05-24T13:37:53.579Z,20.4
2023-05-24T13:43:13.822Z,20.3
2023-05-24T13:48:47.876Z,20.3
2023-05-24T13:54:26.332Z,20.3
2023-05-24T13:59:51.218Z,20.3
2023-05-24T14:05:27.161Z,20.3
2023-05-24T14:11:07.280Z,20.3
2023-05-24T14:18:02.130Z,20.3
2023-05-24T14:23:23.732Z,20.3
2023-05-24T14:28:44.968Z,20.3
2023-05-24T14:34:06.639Z,20.3
2023-05-24T14:39:27.596Z,20.2
2023-05-24T14:44:51.006Z,20.2
2023-05-24T14:50:43.605Z,20.2
2023-05-24T14:56:19.917Z,20.2
2023-05-24T15:01:59.901Z,20.1
2023-05-24T15:07:36.098Z,20.1
2023-05-24T15:13:12.839Z,20.1
2023-05-24T15:18:49.513Z,20
2023-05-24T15:24:26.900Z,20
2023-05-24T15:30:05.166Z,20
2023-05-24T15:35:44.561Z,20.1
2023-05-24T15:41:19.353Z,20.1
2023-05-24T15:46:55.704Z,20.1
2023-05-24T15:53:58.340Z,20.1
2023-05-24T15:59:48.693Z,20.1
2023-05-24T16:05:40.770Z,20.1
2023-05-24T16:11:19.145Z,20.1
2023-05-24T16:16:58.003Z,20.1
2023-05-24T16:22:50.505Z,20.2
2023-05-24T16:28:44.642Z,20.2
2023-05-24T16:34:52.311Z,20.2
2023-05-24T16:40:48.215Z,20.2
2023-05-24T16:46:24.984Z,20.2
2023-05-24T16:52:16.700Z,20.2
2023-05-24T16:58:08.182Z,20.2
2023-05-24T17:04:03.766Z,20.2
2023-05-24T17:09:58.348Z,20.2
2023-05-24T17:15:49.900Z,20.2
2023-05-24T17:21:42.599Z,20.2
2023-05-24T17:27:21.981Z,20.2
2023-05-24T17:33:14.390Z,20.2
2023-05-24T17:39:05.972Z,20.2
2023-05-24T17:44:56.602Z,20.2
2023-05-24T17:50:37.749Z,20.2
2023-05-24T17:56:33.019Z,20.2
2023-05-24T18:02:24.842Z,20.2
2023-05-24T18:08:19.882Z,20.2
2023-05-24T18:14:13.085Z,20.2
2023-05-24T18:20:05.813Z,20.1
2023-05-24T18:26:00.538Z,20.1
2023-05-24T18:31:55.044Z,20.1
2023-05-24T18:37:49.769Z,20.1
2023-05-24T18:43:26.412Z,20.1
2023-05-24T18:49:19.903Z,20.1
2023-05-24T18:54:56.028Z,20.1
2023-05-24T19:00:34.570Z,20.1
2023-05-24T19:06:28.714Z,20.1
2023-05-24T19:12:04.300Z,20.1
2023-05-24T19:17:57.519Z,20.1
2023-05-24T19:23:50.694Z,20.1
2023-05-24T19:29:34.435Z,20.1
2023-05-24T19:35:22.579Z,20.1
2023-05-24T19:40:59.490Z,20.1
2023-05-24T19:46:51.103Z,20.1
2023-05-24T19:52:44.317Z,20.1
2023-05-24T19:58:06.164Z,20.1
2023-05-24T20:03:59.360Z,20.1
2023-05-24T20:09:36.174Z,20.1
2023-05-24T20:14:57.616Z,20.1
2023-05-24T20:20:34.508Z,20.1
2023-05-24T20:26:10.550Z,20.1
2023-05-24T20:32:00.404Z,20.1
2023-05-24T20:37:36.960Z,20.1
2023-05-24T20:43:12.923Z,20.2
2023-05-24T20:48:52.507Z,20.2
2023-05-24T20:54:28.580Z,20.3
2023-05-24T21:00:05.557Z,20.3
2023-05-24T21:05:45.332Z,20.3
2023-05-24T21:11:06.801Z,20.3
2023-05-24T21:16:27.768Z,20.2
2023-05-24T21:22:04.900Z,20.2
2023-05-24T21:27:10.170Z,20.3
2023-05-24T21:33:02.172Z,20.2
2023-05-24T21:38:38.521Z,20.1
2023-05-24T21:43:59.439Z,20.1
2023-05-24T21:49:51.503Z,20.1
2023-05-24T21:55:43.371Z,20.1
2023-05-24T22:01:38.497Z,20
2023-05-24T22:07:31.019Z,20
2023-05-24T22:13:22.677Z,19.9
2023-05-24T22:19:15.146Z,19.9
2023-05-24T22:25:14.300Z,19.9
2023-05-24T22:30:52.617Z,19.9
2023-05-24T22:36:44.251Z,19.9
2023-05-24T22:42:20.660Z,19.9
2023-05-24T22:47:57.735Z,20
2023-05-24T22:53:48.796Z,20
